sensor_id;sensor_type;location;lat;lon;timestamp;P1;durP1;ratioP1;P2;durP2;ratioP2
10491;SDS011;5293;51.464;-2.566;2023-04-16T00:00:41;7.30;;;3.73;;
10491;SDS011;5293;51.464;-2.566;2023-04-16T00:03:06;6.80;;;3.90;;
10491;SDS011;5293;51.464;-2.566;2023-04-16T00:05:32;7.73;;;4.37;;
10491;SDS011;5293;51.464;-2.566;2023-04-16T00:07:58;5.43;;;3.87;;
10491;SDS011;5293;51.464;-2.566;2023-04-16T00:10:23;6.13;;;3.67;;
10491;SDS011;5293;51.464;-2.566;2023-04-16T00:12:49;6.37;;;4.17;;
10491;SDS011;5293;51.464;-2.566;2023-04-16T00:15:15;12.70;;;4.67;;
10491;SDS011;5293;51.464;-2.566;2023-04-16T00:17:40;4.80;;;3.60;;
10491;SDS011;5293;51.464;-2.566;2023-04-16T00:20:06;9.93;;;4.10;;
10491;SDS011;5293;51.464;-2.566;2023-04-16T00:22:33;8.00;;;3.93;;
10491;SDS011;5293;51.464;-2.566;2023-04-16T00:24:58;9.27;;;4.00;;
10491;SDS011;5293;51.464;-2.566;2023-04-16T00:27:24;5.03;;;3.77;;
10491;SDS011;5293;51.464;-2.566;2023-04-16T00:29:50;6.93;;;3.83;;
10491;SDS011;5293;51.464;-2.566;2023-04-16T00:32:15;8.17;;;3.97;;
10491;SDS011;5293;51.464;-2.566;2023-04-16T00:34:41;8.23;;;3.90;;
10491;SDS011;5293;51.464;-2.566;2023-04-16T00:37:07;10.43;;;4.20;;
10491;SDS011;5293;51.464;-2.566;2023-04-16T00:39:32;9.17;;;4.17;;
10491;SDS011;5293;51.464;-2.566;2023-04-16T00:41:58;9.33;;;3.80;;
10491;SDS011;5293;51.464;-2.566;2023-04-16T00:44:24;4.77;;;3.63;;
10491;SDS011;5293;51.464;-2.566;2023-04-16T00:46:49;7.80;;;3.60;;
10491;SDS011;5293;51.464;-2.566;2023-04-16T00:49:15;4.93;;;3.97;;
10491;SDS011;5293;51.464;-2.566;2023-04-16T00:51:41;6.77;;;4.00;;
10491;SDS011;5293;51.464;-2.566;2023-04-16T00:54:07;7.27;;;3.30;;
10491;SDS011;5293;51.464;-2.566;2023-04-16T00:56:33;5.03;;;3.60;;
10491;SDS011;5293;51.464;-2.566;2023-04-16T00:58:59;7.27;;;3.70;;
10491;SDS011;5293;51.464;-2.566;2023-04-16T01:01:25;6.37;;;3.90;;
10491;SDS011;5293;51.464;-2.566;2023-04-16T01:03:51;4.07;;;3.33;;
10491;SDS011;5293;51.464;-2.566;2023-04-16T01:06:16;6.63;;;3.63;;
10491;SDS011;5293;51.464;-2.566;2023-04-16T01:08:43;9.43;;;4.63;;
10491;SDS011;5293;51.464;-2.566;2023-04-16T01:11:09;6.97;;;4.00;;
10491;SDS011;5293;51.464;-2.566;2023-04-16T01:13:36;8.83;;;4.77;;
10491;SDS011;5293;51.464;-2.566;2023-04-16T01:16:05;8.13;;;3.80;;
10491;SDS011;5293;51.464;-2.566;2023-04-16T01:18:32;7.97;;;4.00;;
10491;SDS011;5293;51.464;-2.566;2023-04-16T01:20:57;11.27;;;4.60;;
10491;SDS011;5293;51.464;-2.566;2023-04-16T01:23:23;6.70;;;3.90;;
10491;SDS011;5293;51.464;-2.566;2023-04-16T01:25:49;9.40;;;4.20;;
10491;SDS011;5293;51.464;-2.566;2023-04-16T01:28:14;7.43;;;3.80;;
10491;SDS011;5293;51.464;-2.566;2023-04-16T01:30:41;6.93;;;3.70;;
10491;SDS011;5293;51.464;-2.566;2023-04-16T01:33:07;5.90;;;3.73;;
10491;SDS011;5293;51.464;-2.566;2023-04-16T01:35:36;6.50;;;4.20;;
10491;SDS011;5293;51.464;-2.566;2023-04-16T01:38:02;6.93;;;3.77;;
10491;SDS011;5293;51.464;-2.566;2023-04-16T01:40:30;11.73;;;3.80;;
10491;SDS011;5293;51.464;-2.566;2023-04-16T01:42:56;10.53;;;4.00;;
10491;SDS011;5293;51.464;-2.566;2023-04-16T01:45:22;7.00;;;4.20;;
10491;SDS011;5293;51.464;-2.566;2023-04-16T01:47:48;8.43;;;4.20;;
10491;SDS011;5293;51.464;-2.566;2023-04-16T01:50:15;7.93;;;4.60;;
10491;SDS011;5293;51.464;-2.566;2023-04-16T01:52:41;5.40;;;3.60;;
10491;SDS011;5293;51.464;-2.566;2023-04-16T01:55:08;7.87;;;4.07;;
10491;SDS011;5293;51.464;-2.566;2023-04-16T01:57:33;6.77;;;3.83;;
10491;SDS011;5293;51.464;-2.566;2023-04-16T01:59:59;8.30;;;3.53;;
10491;SDS011;5293;51.464;-2.566;2023-04-16T02:02:25;5.40;;;3.93;;
10491;SDS011;5293;51.464;-2.566;2023-04-16T02:04:53;9.33;;;4.00;;
10491;SDS011;5293;51.464;-2.566;2023-04-16T02:07:19;6.63;;;4.30;;
10491;SDS011;5293;51.464;-2.566;2023-04-16T02:09:45;4.87;;;3.40;;
10491;SDS011;5293;51.464;-2.566;2023-04-16T02:12:10;7.73;;;3.97;;
10491;SDS011;5293;51.464;-2.566;2023-04-16T02:14:36;4.90;;;3.53;;
10491;SDS011;5293;51.464;-2.566;2023-04-16T02:17:02;8.33;;;4.30;;
10491;SDS011;5293;51.464;-2.566;2023-04-16T02:19:28;8.70;;;4.00;;
10491;SDS011;5293;51.464;-2.566;2023-04-16T02:21:54;4.70;;;3.50;;
10491;SDS011;5293;51.464;-2.566;2023-04-16T02:24:20;9.40;;;4.37;;
10491;SDS011;5293;51.464;-2.566;2023-04-16T02:26:46;8.10;;;4.27;;
10491;SDS011;5293;51.464;-2.566;2023-04-16T02:29:12;4.40;;;4.00;;
10491;SDS011;5293;51.464;-2.566;2023-04-16T02:31:38;4.80;;;3.70;;
10491;SDS011;5293;51.464;-2.566;2023-04-16T02:34:03;5.47;;;4.23;;
10491;SDS011;5293;51.464;-2.566;2023-04-16T02:36:30;6.80;;;4.23;;
10491;SDS011;5293;51.464;-2.566;2023-04-16T02:38:56;6.93;;;4.47;;
10491;SDS011;5293;51.464;-2.566;2023-04-16T02:41:25;7.50;;;4.87;;
10491;SDS011;5293;51.464;-2.566;2023-04-16T02:43:50;7.30;;;4.57;;
10491;SDS011;5293;51.464;-2.566;2023-04-16T02:46:16;6.13;;;4.67;;
10491;SDS011;5293;51.464;-2.566;2023-04-16T02:48:42;10.80;;;4.47;;
10491;SDS011;5293;51.464;-2.566;2023-04-16T02:51:07;5.20;;;4.00;;
10491;SDS011;5293;51.464;-2.566;2023-04-16T02:53:33;6.03;;;3.60;;
10491;SDS011;5293;51.464;-2.566;2023-04-16T02:55:59;4.67;;;3.73;;
10491;SDS011;5293;51.464;-2.566;2023-04-16T02:58:25;6.27;;;4.17;;
10491;SDS011;5293;51.464;-2.566;2023-04-16T03:00:51;5.50;;;3.93;;
10491;SDS011;5293;51.464;-2.566;2023-04-16T03:03:18;5.43;;;4.30;;
10491;SDS011;5293;51.464;-2.566;2023-04-16T03:05:45;6.63;;;4.27;;
10491;SDS011;5293;51.464;-2.566;2023-04-16T03:08:11;6.67;;;4.20;;
10491;SDS011;5293;51.464;-2.566;2023-04-16T03:10:36;6.80;;;4.97;;
10491;SDS011;5293;51.464;-2.566;2023-04-16T03:13:02;8.20;;;5.77;;
10491;SDS011;5293;51.464;-2.566;2023-04-16T03:15:29;8.40;;;5.37;;
10491;SDS011;5293;51.464;-2.566;2023-04-16T03:17:55;7.23;;;5.40;;
10491;SDS011;5293;51.464;-2.566;2023-04-16T03:20:21;7.60;;;4.90;;
10491;SDS011;5293;51.464;-2.566;2023-04-16T03:22:47;7.57;;;5.10;;
10491;SDS011;5293;51.464;-2.566;2023-04-16T03:25:13;8.00;;;5.77;;
10491;SDS011;5293;51.464;-2.566;2023-04-16T03:27:39;8.43;;;4.87;;
10491;SDS011;5293;51.464;-2.566;2023-04-16T03:30:06;10.00;;;6.40;;
10491;SDS011;5293;51.464;-2.566;2023-04-16T03:32:32;10.23;;;7.33;;
10491;SDS011;5293;51.464;-2.566;2023-04-16T03:34:58;9.97;;;6.33;;
10491;SDS011;5293;51.464;-2.566;2023-04-16T03:37:23;9.67;;;5.50;;
10491;SDS011;5293;51.464;-2.566;2023-04-16T03:39:49;8.73;;;5.17;;
10491;SDS011;5293;51.464;-2.566;2023-04-16T03:42:15;12.00;;;5.27;;
10491;SDS011;5293;51.464;-2.566;2023-04-16T03:44:40;8.00;;;5.17;;
10491;SDS011;5293;51.464;-2.566;2023-04-16T03:47:06;9.27;;;5.07;;
10491;SDS011;5293;51.464;-2.566;2023-04-16T03:49:32;9.40;;;4.83;;
10491;SDS011;5293;51.464;-2.566;2023-04-16T03:51:57;7.00;;;4.40;;
10491;SDS011;5293;51.464;-2.566;2023-04-16T03:54:23;7.67;;;4.77;;
10491;SDS011;5293;51.464;-2.566;2023-04-16T03:56:49;7.27;;;4.53;;
10491;SDS011;5293;51.464;-2.566;2023-04-16T03:59:16;7.77;;;4.60;;
10491;SDS011;5293;51.464;-2.566;2023-04-16T04:01:42;6.70;;;4.53;;
10491;SDS011;5293;51.464;-2.566;2023-04-16T04:04:07;9.70;;;6.50;;
10491;SDS011;5293;51.464;-2.566;2023-04-16T04:06:34;6.93;;;5.80;;
10491;SDS011;5293;51.464;-2.566;2023-04-16T04:08:59;7.43;;;4.87;;
10491;SDS011;5293;51.464;-2.566;2023-04-16T04:11:25;8.20;;;4.97;;
10491;SDS011;5293;51.464;-2.566;2023-04-16T04:13:51;5.73;;;4.33;;
10491;SDS011;5293;51.464;-2.566;2023-04-16T04:16:16;8.40;;;4.30;;
10491;SDS011;5293;51.464;-2.566;2023-04-16T04:18:42;7.43;;;4.73;;
10491;SDS011;5293;51.464;-2.566;2023-04-16T04:21:08;6.13;;;5.17;;
10491;SDS011;5293;51.464;-2.566;2023-04-16T04:23:34;6.70;;;4.87;;
10491;SDS011;5293;51.464;-2.566;2023-04-16T04:26:00;5.30;;;4.33;;
10491;SDS011;5293;51.464;-2.566;2023-04-16T04:28:31;8.03;;;4.47;;
10491;SDS011;5293;51.464;-2.566;2023-04-16T04:30:57;7.50;;;4.33;;
10491;SDS011;5293;51.464;-2.566;2023-04-16T04:33:23;7.07;;;4.60;;
10491;SDS011;5293;51.464;-2.566;2023-04-16T04:35:53;5.00;;;4.13;;
10491;SDS011;5293;51.464;-2.566;2023-04-16T04:38:18;4.80;;;3.70;;
10491;SDS011;5293;51.464;-2.566;2023-04-16T04:40:46;4.37;;;3.63;;
10491;SDS011;5293;51.464;-2.566;2023-04-16T04:43:12;5.63;;;3.90;;
10491;SDS011;5293;51.464;-2.566;2023-04-16T04:45:38;6.60;;;4.00;;
10491;SDS011;5293;51.464;-2.566;2023-04-16T04:48:04;6.93;;;4.13;;
10491;SDS011;5293;51.464;-2.566;2023-04-16T04:50:30;6.37;;;4.43;;
10491;SDS011;5293;51.464;-2.566;2023-04-16T04:52:56;9.70;;;3.80;;
10491;SDS011;5293;51.464;-2.566;2023-04-16T04:55:22;5.40;;;4.23;;
10491;SDS011;5293;51.464;-2.566;2023-04-16T04:57:48;5.10;;;4.20;;
10491;SDS011;5293;51.464;-2.566;2023-04-16T05:00:14;5.30;;;3.93;;
10491;SDS011;5293;51.464;-2.566;2023-04-16T05:02:40;5.23;;;4.00;;
10491;SDS011;5293;51.464;-2.566;2023-04-16T05:05:06;8.17;;;3.77;;
10491;SDS011;5293;51.464;-2.566;2023-04-16T05:07:32;8.63;;;4.20;;
10491;SDS011;5293;51.464;-2.566;2023-04-16T05:09:57;8.00;;;4.37;;
10491;SDS011;5293;51.464;-2.566;2023-04-16T05:12:23;7.53;;;4.00;;
10491;SDS011;5293;51.464;-2.566;2023-04-16T05:14:49;5.37;;;4.20;;
10491;SDS011;5293;51.464;-2.566;2023-04-16T05:17:14;8.93;;;4.40;;
10491;SDS011;5293;51.464;-2.566;2023-04-16T05:19:40;8.03;;;4.63;;
10491;SDS011;5293;51.464;-2.566;2023-04-16T05:22:06;10.17;;;4.53;;
10491;SDS011;5293;51.464;-2.566;2023-04-16T05:24:32;7.93;;;5.07;;
10491;SDS011;5293;51.464;-2.566;2023-04-16T05:26:57;6.30;;;4.40;;
10491;SDS011;5293;51.464;-2.566;2023-04-16T05:29:23;5.73;;;3.90;;
10491;SDS011;5293;51.464;-2.566;2023-04-16T05:31:49;7.07;;;4.10;;
10491;SDS011;5293;51.464;-2.566;2023-04-16T05:34:14;5.33;;;3.67;;
10491;SDS011;5293;51.464;-2.566;2023-04-16T05:36:40;8.07;;;4.87;;
10491;SDS011;5293;51.464;-2.566;2023-04-16T05:39:06;6.73;;;3.80;;
10491;SDS011;5293;51.464;-2.566;2023-04-16T05:41:32;5.97;;;3.70;;
10491;SDS011;5293;51.464;-2.566;2023-04-16T05:43:58;6.07;;;3.87;;
10491;SDS011;5293;51.464;-2.566;2023-04-16T05:46:23;6.87;;;4.10;;
10491;SDS011;5293;51.464;-2.566;2023-04-16T05:48:49;7.50;;;3.93;;
10491;SDS011;5293;51.464;-2.566;2023-04-16T05:51:15;6.37;;;3.80;;
10491;SDS011;5293;51.464;-2.566;2023-04-16T05:53:41;8.17;;;3.90;;
10491;SDS011;5293;51.464;-2.566;2023-04-16T05:56:07;7.67;;;3.80;;
10491;SDS011;5293;51.464;-2.566;2023-04-16T05:58:33;9.27;;;4.07;;
10491;SDS011;5293;51.464;-2.566;2023-04-16T06:00:59;8.10;;;4.20;;
10491;SDS011;5293;51.464;-2.566;2023-04-16T06:03:25;7.07;;;4.20;;
10491;SDS011;5293;51.464;-2.566;2023-04-16T06:05:51;7.70;;;4.37;;
10491;SDS011;5293;51.464;-2.566;2023-04-16T06:08:17;4.90;;;3.77;;
10491;SDS011;5293;51.464;-2.566;2023-04-16T06:10:44;4.73;;;3.63;;
10491;SDS011;5293;51.464;-2.566;2023-04-16T06:13:11;5.00;;;4.00;;
10491;SDS011;5293;51.464;-2.566;2023-04-16T06:15:36;6.13;;;3.57;;
10491;SDS011;5293;51.464;-2.566;2023-04-16T06:18:02;7.83;;;3.90;;
10491;SDS011;5293;51.464;-2.566;2023-04-16T06:20:28;4.30;;;3.40;;
10491;SDS011;5293;51.464;-2.566;2023-04-16T06:22:54;8.10;;;3.83;;
10491;SDS011;5293;51.464;-2.566;2023-04-16T06:25:20;5.40;;;3.30;;
10491;SDS011;5293;51.464;-2.566;2023-04-16T06:27:46;7.03;;;3.33;;
10491;SDS011;5293;51.464;-2.566;2023-04-16T06:30:12;4.10;;;3.50;;
10491;SDS011;5293;51.464;-2.566;2023-04-16T06:32:38;6.43;;;3.10;;
10491;SDS011;5293;51.464;-2.566;2023-04-16T06:35:05;6.60;;;3.40;;
10491;SDS011;5293;51.464;-2.566;2023-04-16T06:37:30;6.03;;;3.10;;
10491;SDS011;5293;51.464;-2.566;2023-04-16T06:39:56;4.57;;;3.10;;
10491;SDS011;5293;51.464;-2.566;2023-04-16T06:42:22;5.07;;;3.23;;
10491;SDS011;5293;51.464;-2.566;2023-04-16T06:44:48;5.93;;;3.10;;
10491;SDS011;5293;51.464;-2.566;2023-04-16T06:47:14;7.23;;;3.20;;
10491;SDS011;5293;51.464;-2.566;2023-04-16T06:49:40;5.77;;;2.90;;
10491;SDS011;5293;51.464;-2.566;2023-04-16T06:52:05;7.23;;;3.10;;
10491;SDS011;5293;51.464;-2.566;2023-04-16T06:54:31;6.47;;;3.07;;
10491;SDS011;5293;51.464;-2.566;2023-04-16T06:56:57;4.27;;;2.90;;
10491;SDS011;5293;51.464;-2.566;2023-04-16T06:59:23;6.37;;;3.30;;
10491;SDS011;5293;51.464;-2.566;2023-04-16T07:01:50;5.23;;;3.87;;
10491;SDS011;5293;51.464;-2.566;2023-04-16T07:04:16;7.13;;;3.17;;
10491;SDS011;5293;51.464;-2.566;2023-04-16T07:06:42;6.83;;;3.67;;
10491;SDS011;5293;51.464;-2.566;2023-04-16T07:09:07;6.50;;;3.13;;
10491;SDS011;5293;51.464;-2.566;2023-04-16T07:11:34;4.20;;;3.20;;
10491;SDS011;5293;51.464;-2.566;2023-04-16T07:14:00;5.27;;;3.50;;
10491;SDS011;5293;51.464;-2.566;2023-04-16T07:16:26;4.90;;;3.53;;
10491;SDS011;5293;51.464;-2.566;2023-04-16T07:18:51;6.63;;;3.20;;
10491;SDS011;5293;51.464;-2.566;2023-04-16T07:21:17;5.03;;;2.90;;
10491;SDS011;5293;51.464;-2.566;2023-04-16T07:23:43;5.17;;;3.10;;
10491;SDS011;5293;51.464;-2.566;2023-04-16T07:26:08;9.00;;;2.70;;
10491;SDS011;5293;51.464;-2.566;2023-04-16T07:28:35;5.23;;;3.40;;
10491;SDS011;5293;51.464;-2.566;2023-04-16T07:31:01;6.37;;;2.87;;
10491;SDS011;5293;51.464;-2.566;2023-04-16T07:33:27;3.63;;;3.10;;
10491;SDS011;5293;51.464;-2.566;2023-04-16T07:35:52;5.40;;;3.43;;
10491;SDS011;5293;51.464;-2.566;2023-04-16T07:38:18;5.30;;;3.53;;
10491;SDS011;5293;51.464;-2.566;2023-04-16T07:40:44;8.97;;;4.07;;
10491;SDS011;5293;51.464;-2.566;2023-04-16T07:43:10;7.13;;;3.43;;
10491;SDS011;5293;51.464;-2.566;2023-04-16T07:45:35;6.77;;;3.80;;
10491;SDS011;5293;51.464;-2.566;2023-04-16T07:48:01;6.40;;;3.80;;
10491;SDS011;5293;51.464;-2.566;2023-04-16T07:50:27;7.20;;;3.67;;
10491;SDS011;5293;51.464;-2.566;2023-04-16T07:52:52;10.10;;;3.90;;
10491;SDS011;5293;51.464;-2.566;2023-04-16T07:55:18;6.93;;;3.80;;
10491;SDS011;5293;51.464;-2.566;2023-04-16T07:57:44;8.43;;;4.33;;
10491;SDS011;5293;51.464;-2.566;2023-04-16T08:00:10;7.37;;;4.03;;
10491;SDS011;5293;51.464;-2.566;2023-04-16T08:02:36;7.30;;;3.90;;
10491;SDS011;5293;51.464;-2.566;2023-04-16T08:05:01;10.30;;;4.50;;
10491;SDS011;5293;51.464;-2.566;2023-04-16T08:07:27;8.63;;;5.30;;
10491;SDS011;5293;51.464;-2.566;2023-04-16T08:09:53;9.97;;;5.60;;
10491;SDS011;5293;51.464;-2.566;2023-04-16T08:12:19;9.80;;;5.33;;
10491;SDS011;5293;51.464;-2.566;2023-04-16T08:14:45;7.47;;;5.13;;
10491;SDS011;5293;51.464;-2.566;2023-04-16T08:17:12;11.93;;;4.90;;
10491;SDS011;5293;51.464;-2.566;2023-04-16T08:19:39;12.50;;;4.90;;
10491;SDS011;5293;51.464;-2.566;2023-04-16T08:22:05;10.20;;;4.43;;
10491;SDS011;5293;51.464;-2.566;2023-04-16T08:24:30;7.90;;;4.27;;
10491;SDS011;5293;51.464;-2.566;2023-04-16T08:26:56;10.13;;;4.60;;
10491;SDS011;5293;51.464;-2.566;2023-04-16T08:29:22;11.50;;;4.50;;
10491;SDS011;5293;51.464;-2.566;2023-04-16T08:31:50;6.87;;;3.30;;
10491;SDS011;5293;51.464;-2.566;2023-04-16T08:34:19;8.53;;;3.67;;
10491;SDS011;5293;51.464;-2.566;2023-04-16T08:36:45;5.27;;;2.97;;
10491;SDS011;5293;51.464;-2.566;2023-04-16T08:39:11;5.87;;;2.73;;
10491;SDS011;5293;51.464;-2.566;2023-04-16T08:41:37;2.00;;;1.80;;
10491;SDS011;5293;51.464;-2.566;2023-04-16T08:44:07;3.50;;;2.33;;
10491;SDS011;5293;51.464;-2.566;2023-04-16T08:46:35;4.47;;;1.97;;
10491;SDS011;5293;51.464;-2.566;2023-04-16T08:49:04;4.03;;;2.23;;
10491;SDS011;5293;51.464;-2.566;2023-04-16T08:51:33;4.40;;;1.53;;
10491;SDS011;5293;51.464;-2.566;2023-04-16T08:54:03;3.30;;;1.83;;
10491;SDS011;5293;51.464;-2.566;2023-04-16T08:56:33;2.93;;;1.60;;
10491;SDS011;5293;51.464;-2.566;2023-04-16T08:59:00;2.43;;;1.47;;
10491;SDS011;5293;51.464;-2.566;2023-04-16T09:01:29;4.20;;;1.50;;
10491;SDS011;5293;51.464;-2.566;2023-04-16T09:03:59;1.77;;;1.40;;
10491;SDS011;5293;51.464;-2.566;2023-04-16T09:06:26;3.53;;;1.50;;
10491;SDS011;5293;51.464;-2.566;2023-04-16T09:08:52;3.50;;;1.67;;
10491;SDS011;5293;51.464;-2.566;2023-04-16T09:11:18;4.43;;;1.20;;
10491;SDS011;5293;51.464;-2.566;2023-04-16T09:13:45;5.13;;;1.70;;
10491;SDS011;5293;51.464;-2.566;2023-04-16T09:16:11;2.93;;;1.33;;
10491;SDS011;5293;51.464;-2.566;2023-04-16T09:18:38;4.70;;;1.83;;
10491;SDS011;5293;51.464;-2.566;2023-04-16T09:21:03;4.43;;;1.33;;
10491;SDS011;5293;51.464;-2.566;2023-04-16T09:23:31;5.13;;;1.30;;
10491;SDS011;5293;51.464;-2.566;2023-04-16T09:25:57;2.57;;;1.60;;
10491;SDS011;5293;51.464;-2.566;2023-04-16T09:31:18;1.97;;;1.10;;
10491;SDS011;5293;51.464;-2.566;2023-04-16T09:36:39;5.83;;;1.80;;
10491;SDS011;5293;51.464;-2.566;2023-04-16T09:39:05;3.47;;;1.70;;
10491;SDS011;5293;51.464;-2.566;2023-04-16T09:41:32;3.70;;;1.40;;
10491;SDS011;5293;51.464;-2.566;2023-04-16T09:44:03;4.53;;;1.63;;
10491;SDS011;5293;51.464;-2.566;2023-04-16T09:46:30;5.23;;;2.00;;
10491;SDS011;5293;51.464;-2.566;2023-04-16T09:49:03;3.80;;;1.20;;
10491;SDS011;5293;51.464;-2.566;2023-04-16T09:51:37;4.47;;;1.23;;
10491;SDS011;5293;51.464;-2.566;2023-04-16T09:54:07;3.10;;;1.20;;
10491;SDS011;5293;51.464;-2.566;2023-04-16T09:56:37;2.03;;;1.40;;
10491;SDS011;5293;51.464;-2.566;2023-04-16T09:59:10;3.83;;;1.60;;
10491;SDS011;5293;51.464;-2.566;2023-04-16T10:01:41;4.67;;;1.37;;
10491;SDS011;5293;51.464;-2.566;2023-04-16T10:04:07;3.70;;;1.43;;
10491;SDS011;5293;51.464;-2.566;2023-04-16T10:06:33;2.83;;;1.20;;
10491;SDS011;5293;51.464;-2.566;2023-04-16T10:08:58;1.97;;;1.30;;
10491;SDS011;5293;51.464;-2.566;2023-04-16T10:11:24;3.30;;;1.20;;
10491;SDS011;5293;51.464;-2.566;2023-04-16T10:13:50;3.63;;;1.50;;
10491;SDS011;5293;51.464;-2.566;2023-04-16T10:16:16;5.53;;;1.30;;
10491;SDS011;5293;51.464;-2.566;2023-04-16T10:18:43;5.30;;;1.77;;
10491;SDS011;5293;51.464;-2.566;2023-04-16T10:21:10;2.27;;;1.70;;
10491;SDS011;5293;51.464;-2.566;2023-04-16T10:23:40;4.20;;;1.30;;
10491;SDS011;5293;51.464;-2.566;2023-04-16T10:26:06;1.93;;;1.33;;
10491;SDS011;5293;51.464;-2.566;2023-04-16T10:28:32;2.67;;;1.20;;
10491;SDS011;5293;51.464;-2.566;2023-04-16T10:31:04;3.97;;;1.50;;
10491;SDS011;5293;51.464;-2.566;2023-04-16T10:33:35;5.20;;;1.33;;
10491;SDS011;5293;51.464;-2.566;2023-04-16T10:36:13;3.53;;;1.50;;
10491;SDS011;5293;51.464;-2.566;2023-04-16T10:38:44;1.93;;;1.17;;
10491;SDS011;5293;51.464;-2.566;2023-04-16T10:41:18;3.77;;;1.80;;
10491;SDS011;5293;51.464;-2.566;2023-04-16T10:43:45;4.33;;;1.67;;
10491;SDS011;5293;51.464;-2.566;2023-04-16T10:46:22;5.23;;;1.40;;
10491;SDS011;5293;51.464;-2.566;2023-04-16T10:48:53;3.63;;;1.40;;
10491;SDS011;5293;51.464;-2.566;2023-04-16T10:51:28;4.33;;;1.60;;
10491;SDS011;5293;51.464;-2.566;2023-04-16T10:54:02;5.97;;;1.80;;
10491;SDS011;5293;51.464;-2.566;2023-04-16T10:56:44;3.43;;;1.83;;
10491;SDS011;5293;51.464;-2.566;2023-04-16T10:59:10;6.67;;;1.87;;
10491;SDS011;5293;51.464;-2.566;2023-04-16T11:01:41;4.03;;;1.50;;
10491;SDS011;5293;51.464;-2.566;2023-04-16T11:12:11;2.67;;;1.30;;
10491;SDS011;5293;51.464;-2.566;2023-04-16T11:14:41;2.73;;;1.43;;
10491;SDS011;5293;51.464;-2.566;2023-04-16T11:17:10;6.60;;;1.60;;
10491;SDS011;5293;51.464;-2.566;2023-04-16T11:19:36;2.93;;;1.37;;
10491;SDS011;5293;51.464;-2.566;2023-04-16T11:22:03;2.67;;;1.30;;
10491;SDS011;5293;51.464;-2.566;2023-04-16T11:24:32;1.97;;;0.87;;
10491;SDS011;5293;51.464;-2.566;2023-04-16T11:26:57;5.03;;;1.37;;
10491;SDS011;5293;51.464;-2.566;2023-04-16T11:29:23;6.60;;;2.17;;
10491;SDS011;5293;51.464;-2.566;2023-04-16T11:31:52;3.53;;;1.17;;
10491;SDS011;5293;51.464;-2.566;2023-04-16T11:34:19;4.50;;;1.47;;
10491;SDS011;5293;51.464;-2.566;2023-04-16T11:36:45;5.77;;;1.53;;
10491;SDS011;5293;51.464;-2.566;2023-04-16T11:39:13;4.40;;;1.30;;
10491;SDS011;5293;51.464;-2.566;2023-04-16T11:41:45;2.30;;;1.23;;
10491;SDS011;5293;51.464;-2.566;2023-04-16T11:44:21;3.60;;;1.50;;
10491;SDS011;5293;51.464;-2.566;2023-04-16T11:46:48;2.10;;;1.20;;
10491;SDS011;5293;51.464;-2.566;2023-04-16T11:49:14;5.13;;;1.67;;
10491;SDS011;5293;51.464;-2.566;2023-04-16T11:51:46;2.50;;;1.80;;
10491;SDS011;5293;51.464;-2.566;2023-04-16T11:54:18;4.93;;;1.47;;
10491;SDS011;5293;51.464;-2.566;2023-04-16T11:56:45;7.17;;;1.43;;
10491;SDS011;5293;51.464;-2.566;2023-04-16T11:59:16;6.00;;;1.50;;
10491;SDS011;5293;51.464;-2.566;2023-04-16T12:01:47;3.00;;;0.90;;
10491;SDS011;5293;51.464;-2.566;2023-04-16T12:04:14;6.73;;;1.47;;
10491;SDS011;5293;51.464;-2.566;2023-04-16T12:07:03;4.67;;;1.50;;
10491;SDS011;5293;51.464;-2.566;2023-04-16T12:09:30;4.73;;;1.20;;
10491;SDS011;5293;51.464;-2.566;2023-04-16T12:11:56;4.03;;;1.80;;
10491;SDS011;5293;51.464;-2.566;2023-04-16T12:14:22;2.93;;;1.63;;
10491;SDS011;5293;51.464;-2.566;2023-04-16T12:16:48;3.67;;;1.60;;
10491;SDS011;5293;51.464;-2.566;2023-04-16T12:19:13;4.00;;;1.40;;
10491;SDS011;5293;51.464;-2.566;2023-04-16T12:21:40;4.87;;;1.83;;
10491;SDS011;5293;51.464;-2.566;2023-04-16T12:24:07;3.10;;;1.40;;
10491;SDS011;5293;51.464;-2.566;2023-04-16T12:29:14;3.13;;;1.60;;
10491;SDS011;5293;51.464;-2.566;2023-04-16T12:31:43;4.67;;;1.63;;
10491;SDS011;5293;51.464;-2.566;2023-04-16T12:34:10;5.27;;;1.63;;
10491;SDS011;5293;51.464;-2.566;2023-04-16T12:36:36;3.30;;;1.60;;
10491;SDS011;5293;51.464;-2.566;2023-04-16T12:39:02;3.43;;;1.60;;
10491;SDS011;5293;51.464;-2.566;2023-04-16T12:41:29;6.57;;;1.60;;
10491;SDS011;5293;51.464;-2.566;2023-04-16T12:44:11;4.40;;;1.63;;
10491;SDS011;5293;51.464;-2.566;2023-04-16T12:46:41;6.30;;;1.90;;
10491;SDS011;5293;51.464;-2.566;2023-04-16T12:49:07;5.90;;;2.10;;
10491;SDS011;5293;51.464;-2.566;2023-04-16T12:51:33;2.43;;;1.77;;
10491;SDS011;5293;51.464;-2.566;2023-04-16T12:54:00;5.30;;;1.67;;
10491;SDS011;5293;51.464;-2.566;2023-04-16T12:56:27;4.53;;;1.80;;
10491;SDS011;5293;51.464;-2.566;2023-04-16T12:58:53;3.57;;;1.80;;
10491;SDS011;5293;51.464;-2.566;2023-04-16T13:01:19;4.07;;;1.80;;
10491;SDS011;5293;51.464;-2.566;2023-04-16T13:03:45;3.87;;;1.67;;
10491;SDS011;5293;51.464;-2.566;2023-04-16T13:06:11;8.37;;;1.70;;
10491;SDS011;5293;51.464;-2.566;2023-04-16T13:08:38;6.03;;;1.90;;
10491;SDS011;5293;51.464;-2.566;2023-04-16T13:11:04;8.47;;;2.20;;
10491;SDS011;5293;51.464;-2.566;2023-04-16T13:13:30;6.60;;;1.50;;
10491;SDS011;5293;51.464;-2.566;2023-04-16T13:15:56;5.07;;;2.10;;
10491;SDS011;5293;51.464;-2.566;2023-04-16T13:18:22;4.17;;;1.60;;
10491;SDS011;5293;51.464;-2.566;2023-04-16T13:20:48;5.80;;;2.00;;
10491;SDS011;5293;51.464;-2.566;2023-04-16T13:23:14;7.67;;;2.20;;
10491;SDS011;5293;51.464;-2.566;2023-04-16T13:25:39;4.27;;;1.60;;
10491;SDS011;5293;51.464;-2.566;2023-04-16T13:28:05;4.43;;;1.80;;
10491;SDS011;5293;51.464;-2.566;2023-04-16T13:30:31;5.10;;;1.83;;
10491;SDS011;5293;51.464;-2.566;2023-04-16T13:32:57;4.63;;;1.70;;
10491;SDS011;5293;51.464;-2.566;2023-04-16T13:35:23;8.77;;;1.87;;
10491;SDS011;5293;51.464;-2.566;2023-04-16T13:37:50;3.57;;;1.93;;
10491;SDS011;5293;51.464;-2.566;2023-04-16T13:40:15;7.53;;;1.77;;
10491;SDS011;5293;51.464;-2.566;2023-04-16T13:42:41;7.10;;;1.73;;
10491;SDS011;5293;51.464;-2.566;2023-04-16T13:45:07;4.80;;;2.10;;
10491;SDS011;5293;51.464;-2.566;2023-04-16T13:47:37;5.70;;;1.60;;
10491;SDS011;5293;51.464;-2.566;2023-04-16T13:50:05;9.20;;;2.37;;
10491;SDS011;5293;51.464;-2.566;2023-04-16T13:52:31;5.07;;;1.90;;
10491;SDS011;5293;51.464;-2.566;2023-04-16T13:54:57;5.03;;;2.17;;
10491;SDS011;5293;51.464;-2.566;2023-04-16T13:57:22;4.37;;;1.90;;
10491;SDS011;5293;51.464;-2.566;2023-04-16T13:59:48;7.47;;;2.47;;
10491;SDS011;5293;51.464;-2.566;2023-04-16T14:02:14;7.67;;;2.57;;
10491;SDS011;5293;51.464;-2.566;2023-04-16T14:04:40;4.87;;;2.43;;
10491;SDS011;5293;51.464;-2.566;2023-04-16T14:07:06;8.10;;;2.87;;
10491;SDS011;5293;51.464;-2.566;2023-04-16T14:09:31;7.50;;;2.40;;
10491;SDS011;5293;51.464;-2.566;2023-04-16T14:11:57;4.63;;;2.53;;
10491;SDS011;5293;51.464;-2.566;2023-04-16T14:14:22;8.47;;;3.30;;
10491;SDS011;5293;51.464;-2.566;2023-04-16T14:16:49;6.43;;;2.83;;
10491;SDS011;5293;51.464;-2.566;2023-04-16T14:19:15;5.83;;;3.23;;
10491;SDS011;5293;51.464;-2.566;2023-04-16T14:21:41;10.23;;;4.30;;
10491;SDS011;5293;51.464;-2.566;2023-04-16T14:24:07;12.83;;;5.60;;
10491;SDS011;5293;51.464;-2.566;2023-04-16T14:26:33;10.33;;;3.90;;
10491;SDS011;5293;51.464;-2.566;2023-04-16T14:28:59;9.07;;;3.87;;
10491;SDS011;5293;51.464;-2.566;2023-04-16T14:31:25;5.40;;;2.83;;
10491;SDS011;5293;51.464;-2.566;2023-04-16T14:33:51;6.97;;;3.50;;
10491;SDS011;5293;51.464;-2.566;2023-04-16T14:36:16;4.30;;;3.17;;
10491;SDS011;5293;51.464;-2.566;2023-04-16T14:38:42;6.83;;;2.77;;
10491;SDS011;5293;51.464;-2.566;2023-04-16T14:41:08;7.73;;;3.90;;
10491;SDS011;5293;51.464;-2.566;2023-04-16T14:43:35;6.33;;;3.10;;
10491;SDS011;5293;51.464;-2.566;2023-04-16T14:46:01;6.93;;;3.87;;
10491;SDS011;5293;51.464;-2.566;2023-04-16T14:48:30;5.77;;;2.53;;
10491;SDS011;5293;51.464;-2.566;2023-04-16T14:50:56;10.03;;;4.20;;
10491;SDS011;5293;51.464;-2.566;2023-04-16T14:53:22;9.17;;;2.50;;
10491;SDS011;5293;51.464;-2.566;2023-04-16T14:55:48;7.57;;;2.33;;
10491;SDS011;5293;51.464;-2.566;2023-04-16T14:58:15;8.83;;;2.47;;
10491;SDS011;5293;51.464;-2.566;2023-04-16T15:00:41;5.70;;;1.90;;